createdAt,value
2022-08-17T00:00:01.601Z,40.78
2022-08-17T00:03:17.894Z,37.63
2022-08-17T00:06:15.423Z,39.53
2022-08-17T00:08:50.732Z,37.38
2022-08-17T00:11:22.779Z,35.28
2022-08-17T00:13:56.082Z,40.00
2022-08-17T00:16:56.467Z,35.63
2022-08-17T00:19:24.236Z,34.15
2022-08-17T00:22:32.591Z,39.22
2022-08-17T00:24:43.426Z,39.22
2022-08-17T00:27:10.446Z,38.25
2022-08-17T00:29:37.361Z,35.72
2022-08-17T00:33:14.073Z,33.88
2022-08-17T00:34:51.544Z,38.65
2022-08-17T00:37:18.399Z,37.17
2022-08-17T00:39:45.277Z,39.25
2022-08-17T00:42:15.881Z,37.53
2022-08-17T00:44:42.794Z,36.58
2022-08-17T00:47:09.864Z,42.22
2022-08-17T00:49:36.708Z,38.17
2022-08-17T00:52:15.519Z,40.05
2022-08-17T00:54:48.231Z,39.03
2022-08-17T00:57:23.324Z,38.58
2022-08-17T01:00:03.368Z,43.58
2022-08-17T01:02:41.768Z,38.08
2022-08-17T01:05:18.554Z,39.45
2022-08-17T01:07:48.949Z,42.97
2022-08-17T01:10:59.360Z,39.58
2022-08-17T01:13:07.775Z,46.17
2022-08-17T01:15:46.459Z,42.85
2022-08-17T01:18:14.967Z,44.28
2022-08-17T01:20:49.327Z,39.55
2022-08-17T01:23:20.746Z,42.45
2022-08-17T01:26:01.865Z,40.90
2022-08-17T01:28:53.712Z,38.40
2022-08-17T01:31:22.798Z,44.97
2022-08-17T01:33:49.741Z,40.20
2022-08-17T01:36:16.636Z,39.10
2022-08-17T01:38:43.568Z,39.50
2022-08-17T01:41:15.599Z,40.65
2022-08-17T01:44:05.272Z,38.10
2022-08-17T01:46:36.967Z,37.22
2022-08-17T01:51:37.259Z,38.20
2022-08-17T01:54:11.373Z,40.83
2022-08-17T01:56:44.210Z,41.13
2022-08-17T01:59:15.685Z,40.17
2022-08-17T02:01:43.781Z,41.75
2022-08-17T02:04:11.650Z,37.13
2022-08-17T02:06:52.859Z,40.17
2022-08-17T02:09:25.574Z,37.90
2022-08-17T02:11:56.512Z,34.28
2022-08-17T02:14:24.665Z,42.97
2022-08-17T02:16:53.240Z,40.78
2022-08-17T02:19:20.378Z,37.50
2022-08-17T02:21:52.166Z,40.08
2022-08-17T02:25:01.293Z,38.90
2022-08-17T02:27:16.284Z,38.97
2022-08-17T02:29:43.241Z,39.30
2022-08-17T02:32:27.401Z,43.30
2022-08-17T02:34:57.455Z,35.63
2022-08-17T02:37:27.166Z,39.13
2022-08-17T02:39:57.163Z,38.00
2022-08-17T02:42:31.449Z,39.47
2022-08-17T02:44:59.104Z,35.97
2022-08-17T02:47:26.774Z,38.75
2022-08-17T02:49:55.806Z,36.75
2022-08-17T02:52:41.937Z,37.25
2022-08-17T02:55:17.986Z,38.47
2022-08-17T02:57:45.469Z,39.13
2022-08-17T03:00:24.668Z,38.63
2022-08-17T03:02:52.409Z,38.97
2022-08-17T03:05:23.729Z,39.22
2022-08-17T03:07:51.781Z,35.75
2022-08-17T03:10:20.317Z,36.10
2022-08-17T03:12:48.373Z,39.00
2022-08-17T03:15:22.644Z,35.45
2022-08-17T03:17:51.414Z,38.58
2022-08-17T03:20:20.409Z,38.03
2022-08-17T03:22:53.425Z,38.53
2022-08-17T03:25:26.869Z,33.45
2022-08-17T03:27:55.116Z,38.42
2022-08-17T03:30:23.404Z,37.78
2022-08-17T03:32:55.696Z,35.45
2022-08-17T03:35:28.417Z,34.90
2022-08-17T03:38:00.422Z,39.10
2022-08-17T03:40:55.826Z,36.40
2022-08-17T03:43:19.265Z,39.17
2022-08-17T03:46:04.902Z,36.90
2022-08-17T03:48:51.556Z,36.53
2022-08-17T03:51:43.363Z,38.08
2022-08-17T03:54:29.578Z,34.97
2022-08-17T03:57:09.278Z,37.58
2022-08-17T03:59:38.002Z,40.00
2022-08-17T04:02:11.406Z,37.53
2022-08-17T04:04:39.624Z,40.95
2022-08-17T04:07:06.809Z,38.20
2022-08-17T04:09:34.083Z,39.58
2022-08-17T04:12:02.386Z,45.65
2022-08-17T04:14:37.862Z,42.75
2022-08-17T04:17:21.652Z,44.10
2022-08-17T04:19:48.582Z,43.05
2022-08-17T04:22:31.290Z,46.92
2022-08-17T04:25:17.076Z,44.53
2022-08-17T04:27:43.999Z,45.58
2022-08-17T04:30:12.202Z,47.00
2022-08-17T04:33:12.249Z,44.75
2022-08-17T04:35:45.876Z,48.08
2022-08-17T04:38:18.201Z,46.65
2022-08-17T04:41:04.853Z,43.47
2022-08-17T04:43:34.292Z,42.20
2022-08-17T04:46:06.558Z,40.13
2022-08-17T04:48:42.643Z,45.05
2022-08-17T04:51:31.170Z,42.33
2022-08-17T04:54:07.907Z,43.65
2022-08-17T04:56:35.573Z,39.55
2022-08-17T04:59:12.233Z,44.58
2022-08-17T05:01:41.571Z,41.33
2022-08-17T05:04:33.006Z,40.78
2022-08-17T05:07:01.573Z,41.72
2022-08-17T05:09:29.023Z,42.30
2022-08-17T05:11:56.178Z,37.75
2022-08-17T05:14:32.999Z,43.78
2022-08-17T05:17:02.021Z,39.95
2022-08-17T05:19:34.449Z,41.17
2022-08-17T05:22:05.958Z,36.88
2022-08-17T05:24:39.061Z,39.35
2022-08-17T05:27:10.688Z,37.47
2022-08-17T05:29:44.684Z,37.38
2022-08-17T05:32:39.536Z,37.95
2022-08-17T05:35:00.963Z,34.83
2022-08-17T05:37:28.193Z,38.88
2022-08-17T05:39:55.154Z,36.13
2022-08-17T05:42:22.522Z,35.90
2022-08-17T05:44:49.608Z,37.22
2022-08-17T05:47:18.349Z,36.55
2022-08-17T05:49:45.298Z,36.50
2022-08-17T05:52:33.982Z,38.53
2022-08-17T05:55:24.771Z,29.90
2022-08-17T05:58:34.837Z,31.45
2022-08-17T06:01:17.803Z,33.92
2022-08-17T06:04:30.889Z,35.40
2022-08-17T06:07:31.785Z,32.85
2022-08-17T06:10:18.420Z,33.95
2022-08-17T06:13:04.472Z,32.53
2022-08-17T06:16:04.649Z,31.20
2022-08-17T06:19:00.097Z,31.85
2022-08-17T06:21:38.667Z,31.05
2022-08-17T06:24:48.056Z,32.47
2022-08-17T06:27:32.945Z,33.03
2022-08-17T06:30:11.024Z,33.38
2022-08-17T06:32:42.813Z,31.70
2022-08-17T06:35:15.243Z,33.30
2022-08-17T06:38:38.093Z,37.33
2022-08-17T06:41:23.433Z,32.80
2022-08-17T06:44:06.505Z,34.97
2022-08-17T06:46:48.488Z,32.20
2022-08-17T06:49:26.274Z,30.95
2022-08-17T06:52:06.815Z,44.10
2022-08-17T06:55:18.047Z,37.10
2022-08-17T06:58:05.350Z,34.58
2022-08-17T07:00:47.357Z,33.13
2022-08-17T07:03:37.810Z,34.10
2022-08-17T07:08:54.097Z,31.05
2022-08-17T07:11:32.219Z,33.25
2022-08-17T07:14:22.389Z,30.23
2022-08-17T07:16:53.208Z,31.77
2022-08-17T07:19:26.401Z,31.90
2022-08-17T07:22:03.762Z,30.48
2022-08-17T07:24:49.039Z,29.77
2022-08-17T07:27:25.093Z,28.92
2022-08-17T07:30:23.469Z,30.52
2022-08-17T07:33:20.057Z,27.20
2022-08-17T07:35:49.862Z,29.00
2022-08-17T07:38:28.272Z,26.52
2022-08-17T07:40:57.590Z,33.05
2022-08-17T07:43:52.121Z,27.63
2022-08-17T07:47:06.869Z,28.60
2022-08-17T07:49:39.734Z,31.58
2022-08-17T07:52:51.853Z,31.40
2022-08-17T07:55:34.940Z,25.55
2022-08-17T07:58:03.389Z,24.60
2022-08-17T08:00:32.090Z,26.40
2022-08-17T08:03:11.536Z,29.27
2022-08-17T08:05:51.005Z,26.50
2022-08-17T08:08:37.347Z,24.40
2022-08-17T08:11:15.668Z,28.98
2022-08-17T08:13:45.704Z,24.88
2022-08-17T08:16:27.012Z,25.98
2022-08-17T08:18:58.604Z,25.15
2022-08-17T08:24:38.522Z,27.30
2022-08-17T08:27:54.449Z,33.25
2022-08-17T08:30:22.859Z,29.17
2022-08-17T08:33:25.351Z,30.80
2022-08-17T08:36:56.907Z,30.38
2022-08-17T08:39:30.892Z,33.88
2022-08-17T08:42:20.870Z,31.23
2022-08-17T08:45:28.307Z,32.78
2022-08-17T08:48:45.805Z,30.73
2022-08-17T08:51:18.112Z,32.20
2022-08-17T08:54:26.670Z,30.60
2022-08-17T08:57:26.699Z,31.20
2022-08-17T09:00:20.968Z,33.85
2022-08-17T09:03:12.277Z,29.65
2022-08-17T09:06:03.723Z,32.50
2022-08-17T09:08:55.512Z,29.83
2022-08-17T09:12:01.987Z,29.60
2022-08-17T09:14:47.486Z,31.13
2022-08-17T09:17:38.978Z,35.00
2022-08-17T09:20:28.693Z,27.88
2022-08-17T09:23:08.649Z,31.90
2022-08-17T09:25:49.888Z,29.52
2022-08-17T09:28:30.967Z,28.73
2022-08-17T09:31:05.945Z,30.80
2022-08-17T09:33:43.391Z,31.45
2022-08-17T09:36:26.264Z,34.85
2022-08-17T09:39:08.808Z,29.42
2022-08-17T09:41:51.181Z,33.88
2022-08-17T09:44:42.716Z,30.67
2022-08-17T09:47:30.630Z,37.05
2022-08-17T09:50:55.529Z,36.28
2022-08-17T09:53:11.409Z,36.33
2022-08-17T09:56:06.555Z,35.15
2022-08-17T09:59:00.890Z,35.58
2022-08-17T10:02:17.270Z,33.53
2022-08-17T10:04:56.836Z,32.20
2022-08-17T10:07:56.001Z,35.72
2022-08-17T10:10:39.664Z,35.30
2022-08-17T10:13:33.857Z,36.95
2022-08-17T10:16:17.674Z,35.45
2022-08-17T10:19:05.030Z,37.40
2022-08-17T10:22:01.578Z,39.45
2022-08-17T10:25:22.867Z,33.55
2022-08-17T10:28:19.746Z,38.47
2022-08-17T10:31:10.418Z,41.63
2022-08-17T10:34:01.748Z,43.40
2022-08-17T10:37:04.748Z,44.03
2022-08-17T10:42:33.071Z,47.40
2022-08-17T10:45:47.028Z,47.03
2022-08-17T10:48:14.155Z,43.58
2022-08-17T10:50:55.978Z,43.05
2022-08-17T10:53:31.796Z,46.80
2022-08-17T10:56:13.882Z,48.80
2022-08-17T10:59:37.243Z,46.22
2022-08-17T11:02:25.999Z,47.97
2022-08-17T11:05:33.039Z,50.08
2022-08-17T11:08:37.665Z,48.55
2022-08-17T11:11:35.960Z,59.60
2022-08-17T11:14:43.986Z,53.38
2022-08-17T11:17:52.053Z,53.85
2022-08-17T11:20:55.754Z,51.60
2022-08-17T11:24:11.391Z,53.33
2022-08-17T11:29:33.610Z,53.42
2022-08-17T11:32:07.209Z,51.65
2022-08-17T11:34:41.791Z,52.88
2022-08-17T11:37:11.349Z,50.47
2022-08-17T11:39:55.865Z,53.88
2022-08-17T11:43:04.236Z,48.63
2022-08-17T11:46:14.562Z,49.75
2022-08-17T11:49:10.792Z,54.20
2022-08-17T11:52:00.339Z,49.65
2022-08-17T11:54:33.843Z,51.17
2022-08-17T11:57:26.794Z,54.50
2022-08-17T12:00:02.951Z,52.78
2022-08-17T12:02:38.778Z,51.60
2022-08-17T12:05:14.489Z,51.50
2022-08-17T12:07:54.588Z,52.25
2022-08-17T12:10:31.971Z,56.55
2022-08-17T12:13:11.004Z,61.35
2022-08-17T12:15:49.237Z,51.15
2022-08-17T12:18:39.760Z,49.63
2022-08-17T12:23:59.901Z,54.60
2022-08-17T12:26:33.305Z,56.17
2022-08-17T12:29:06.346Z,56.45
2022-08-17T12:31:45.062Z,52.92
2022-08-17T12:34:39.862Z,54.00
2022-08-17T12:37:29.685Z,54.58
2022-08-17T12:40:18.874Z,50.50
2022-08-17T12:42:56.672Z,59.08
2022-08-17T12:45:31.840Z,60.08
2022-08-17T12:48:11.053Z,58.10
2022-08-17T12:50:45.166Z,65.05
2022-08-17T12:53:23.073Z,53.63
2022-08-17T12:55:54.037Z,63.22
2022-08-17T12:58:28.769Z,52.92
2022-08-17T13:01:09.509Z,58.50
2022-08-17T13:03:44.075Z,54.22
2022-08-17T13:06:25.217Z,53.15
2022-08-17T13:08:52.305Z,58.85
2022-08-17T13:11:24.585Z,56.65
2022-08-17T13:13:56.623Z,56.83
2022-08-17T13:16:33.351Z,57.63
2022-08-17T13:19:15.140Z,59.50
2022-08-17T13:21:49.364Z,57.35
2022-08-17T13:24:29.524Z,57.20
2022-08-17T13:27:08.593Z,54.03
2022-08-17T13:29:44.200Z,60.47
2022-08-17T13:32:14.267Z,55.25
2022-08-17T13:35:13.030Z,55.78
2022-08-17T13:37:36.727Z,57.75
2022-08-17T13:40:09.620Z,58.22
2022-08-17T13:42:50.198Z,62.05
2022-08-17T13:45:36.125Z,61.20
2022-08-17T13:48:11.863Z,64.55
2022-08-17T13:51:09.829Z,63.03
2022-08-17T13:53:37.022Z,60.72
2022-08-17T13:56:33.185Z,56.80
2022-08-17T13:59:15.182Z,56.78
2022-08-17T14:01:51.077Z,59.53
2022-08-17T14:07:01.989Z,55.00
2022-08-17T14:09:37.667Z,58.22
2022-08-17T14:12:11.590Z,60.55
2022-08-17T14:14:39.311Z,56.70
2022-08-17T14:17:07.975Z,61.92
2022-08-17T14:19:36.015Z,60.70
2022-08-17T14:22:04.986Z,56.88
2022-08-17T14:24:40.028Z,56.70
2022-08-17T14:27:11.961Z,60.58
2022-08-17T14:29:41.053Z,57.35
2022-08-17T14:32:20.999Z,61.58
2022-08-17T14:34:49.620Z,59.60
2022-08-17T14:37:21.259Z,58.45
2022-08-17T14:39:48.360Z,57.85
2022-08-17T14:42:15.532Z,64.13
2022-08-17T14:44:42.391Z,58.83
2022-08-17T14:47:15.890Z,54.47
2022-08-17T14:49:43.683Z,57.20
2022-08-17T14:52:20.797Z,59.90
2022-08-17T14:54:51.321Z,54.88
2022-08-17T14:57:34.245Z,54.33
2022-08-17T15:00:03.335Z,59.15
2022-08-17T15:02:31.034Z,57.33
2022-08-17T15:05:06.274Z,56.22
2022-08-17T15:07:33.172Z,49.38
2022-08-17T15:10:01.597Z,58.42
2022-08-17T15:12:34.628Z,54.47
2022-08-17T15:15:05.430Z,59.67
2022-08-17T15:17:45.063Z,55.67
2022-08-17T15:20:26.324Z,50.92
2022-08-17T15:22:57.455Z,53.75
2022-08-17T15:25:28.200Z,49.65
2022-08-17T15:27:56.036Z,53.33
2022-08-17T15:30:25.667Z,51.67
2022-08-17T15:32:55.145Z,56.40
2022-08-17T15:35:29.108Z,52.47
2022-08-17T15:38:11.614Z,50.72
2022-08-17T15:40:51.426Z,54.83
2022-08-17T15:43:27.352Z,50.17
2022-08-17T15:46:12.169Z,48.97
2022-08-17T15:48:43.058Z,51.13
2022-08-17T15:51:13.233Z,48.50
2022-08-17T15:53:43.223Z,50.38
2022-08-17T15:56:11.239Z,53.55
2022-08-17T15:58:38.475Z,55.38
2022-08-17T16:01:14.738Z,56.63
2022-08-17T16:04:06.717Z,58.83
2022-08-17T16:06:34.762Z,55.85
2022-08-17T16:09:01.878Z,62.92
2022-08-17T16:11:28.748Z,53.53
2022-08-17T16:13:56.081Z,61.50
2022-08-17T16:16:24.239Z,58.15
2022-08-17T16:18:55.673Z,60.15
2022-08-17T16:21:26.712Z,57.40
2022-08-17T16:24:06.211Z,56.25
2022-08-17T16:26:40.551Z,47.30
2022-08-17T16:29:08.453Z,56.22
2022-08-17T16:31:37.549Z,51.92
2022-08-17T16:34:17.023Z,58.33
2022-08-17T16:36:55.093Z,53.92
2022-08-17T16:39:29.248Z,56.53
2022-08-17T16:41:57.769Z,59.00
2022-08-17T16:44:25.823Z,56.13
2022-08-17T16:46:53.400Z,53.88
2022-08-17T16:49:24.407Z,54.80
2022-08-17T16:52:05.906Z,57.47
2022-08-17T16:54:35.489Z,53.25
2022-08-17T16:57:05.126Z,53.95
2022-08-17T16:59:40.869Z,51.83
2022-08-17T17:02:14.547Z,54.35
2022-08-17T17:05:00.046Z,53.22
2022-08-17T17:08:15.042Z,54.20
2022-08-17T17:10:51.277Z,53.17
2022-08-17T17:13:25.699Z,55.67
2022-08-17T17:16:18.359Z,62.38
2022-08-17T17:19:10.211Z,56.75
2022-08-17T17:22:18.284Z,55.97
2022-08-17T17:25:04.397Z,54.72
2022-08-17T17:28:26.281Z,52.53
2022-08-17T17:31:07.458Z,50.97
2022-08-17T17:33:42.955Z,54.00
2022-08-17T17:36:33.060Z,50.20
2022-08-17T17:39:10.235Z,50.63
2022-08-17T17:41:54.809Z,54.13
2022-08-17T17:44:32.896Z,50.75
2022-08-17T17:47:03.158Z,52.47
2022-08-17T17:49:44.609Z,51.95
2022-08-17T17:52:15.623Z,49.70
2022-08-17T17:55:05.693Z,52.05
2022-08-17T17:57:59.390Z,50.55
2022-08-17T18:00:33.904Z,52.72
2022-08-17T18:03:34.037Z,54.38
2022-08-17T18:06:17.341Z,54.22
2022-08-17T18:09:43.526Z,55.13
2022-08-17T18:13:10.939Z,55.45
2022-08-17T18:15:51.080Z,56.42
2022-08-17T18:18:17.872Z,56.80
2022-08-17T18:20:53.779Z,53.78
2022-08-17T18:23:27.988Z,50.65
2022-08-17T18:25:58.098Z,54.22
2022-08-17T18:28:39.807Z,53.95
2022-08-17T18:31:20.063Z,55.35
2022-08-17T18:34:36.094Z,52.50
2022-08-17T18:37:09.346Z,54.25
2022-08-17T18:39:39.487Z,53.50
2022-08-17T18:42:26.240Z,53.03
2022-08-17T18:44:55.436Z,52.50
2022-08-17T18:47:29.372Z,54.03
2022-08-17T18:50:26.613Z,55.90
2022-08-17T18:52:56.011Z,54.28
2022-08-17T18:55:29.273Z,54.28
2022-08-17T18:58:14.933Z,53.92
2022-08-17T19:00:46.114Z,58.53
2022-08-17T19:03:16.009Z,57.72
2022-08-17T19:05:47.003Z,61.40
2022-08-17T19:08:29.205Z,56.92
2022-08-17T19:11:03.567Z,57.45
2022-08-17T19:13:42.319Z,54.80
2022-08-17T19:16:28.204Z,59.67
2022-08-17T19:19:09.976Z,60.45
2022-08-17T19:21:45.034Z,63.33
2022-08-17T19:24:22.819Z,62.15
2022-08-17T19:27:03.228Z,63.67
2022-08-17T19:29:53.825Z,62.17
2022-08-17T19:32:27.361Z,56.38
2022-08-17T19:34:56.745Z,57.33
2022-08-17T19:38:00.559Z,60.55
2022-08-17T19:41:00.488Z,63.17
2022-08-17T19:44:14.798Z,59.63
2022-08-17T19:47:06.057Z,61.25
2022-08-17T19:50:07.108Z,63.95
2022-08-17T19:52:56.522Z,62.20
2022-08-17T19:55:37.698Z,64.20
2022-08-17T19:58:12.117Z,65.97
2022-08-17T20:00:52.109Z,62.63
2022-08-17T20:03:34.878Z,62.38
2022-08-17T20:06:14.808Z,66.97
2022-08-17T20:08:58.162Z,62.00
2022-08-17T20:11:45.120Z,64.75
2022-08-17T20:14:24.800Z,68.38
2022-08-17T20:16:52.299Z,69.90
2022-08-17T20:19:37.307Z,68.28
2022-08-17T20:22:15.319Z,70.35
2022-08-17T20:25:12.291Z,70.80
2022-08-17T20:30:40.605Z,69.00
2022-08-17T20:33:33.937Z,67.47
2022-08-17T20:36:16.255Z,73.88
2022-08-17T20:38:47.133Z,74.57
2022-08-17T20:41:20.919Z,78.93
2022-08-17T20:43:55.477Z,77.10
2022-08-17T20:46:37.971Z,73.10
2022-08-17T20:49:21.489Z,73.85
2022-08-17T20:52:13.540Z,74.57
2022-08-17T20:54:57.335Z,72.80
2022-08-17T20:57:33.227Z,73.03
2022-08-17T21:00:16.729Z,74.35
2022-08-17T21:02:50.753Z,75.18
2022-08-17T21:05:34.290Z,73.82
2022-08-17T21:08:25.568Z,71.05
2022-08-17T21:10:53.256Z,74.90
2022-08-17T21:13:35.809Z,73.65
2022-08-17T21:16:21.985Z,77.38
2022-08-17T21:20:00.586Z,72.65
2022-08-17T21:22:47.141Z,72.68
2022-08-17T21:26:30.164Z,79.25
2022-08-17T21:29:31.827Z,76.30
2022-08-17T21:31:59.512Z,79.38
2022-08-17T21:34:43.227Z,77.97
2022-08-17T21:37:22.397Z,78.13
2022-08-17T21:40:10.623Z,78.85
2022-08-17T21:43:18.077Z,79.20
2022-08-17T21:46:00.717Z,72.57
2022-08-17T21:48:32.270Z,77.07
2022-08-17T21:51:28.149Z,75.43
2022-08-17T21:54:02.845Z,72.78
2022-08-17T21:56:32.875Z,72.25
2022-08-17T21:59:20.875Z,71.03
2022-08-17T22:02:08.583Z,75.43
2022-08-17T22:04:40.590Z,75.78
2022-08-17T22:07:12.560Z,73.18
2022-08-17T22:09:48.543Z,80.28
2022-08-17T22:12:22.751Z,74.20
2022-08-17T22:15:05.870Z,76.15
2022-08-17T22:17:45.279Z,75.53
2022-08-17T22:20:20.859Z,73.78
2022-08-17T22:23:06.166Z,74.20
2022-08-17T22:25:40.627Z,73.03
2022-08-17T22:28:12.059Z,75.50
2022-08-17T22:31:00.518Z,72.07
2022-08-17T22:33:33.363Z,72.00
2022-08-17T22:36:11.300Z,72.93
2022-08-17T22:38:39.478Z,71.90
2022-08-17T22:41:42.701Z,74.57
2022-08-17T22:44:23.425Z,69.10
2022-08-17T22:47:02.583Z,69.15
2022-08-17T22:49:57.593Z,73.13
2022-08-17T22:53:02.439Z,69.15
2022-08-17T22:55:52.372Z,72.78
2022-08-17T22:58:43.246Z,70.55
2022-08-17T23:01:34.764Z,77.18
2022-08-17T23:04:13.248Z,69.38
2022-08-17T23:06:44.309Z,75.28
2022-08-17T23:09:11.177Z,74.90
2022-08-17T23:11:55.777Z,73.90
2022-08-17T23:14:22.795Z,73.55
2022-08-17T23:16:52.537Z,68.47
2022-08-17T23:19:21.877Z,72.93
2022-08-17T23:21:52.434Z,69.75
2022-08-17T23:24:35.682Z,71.50
2022-08-17T23:27:07.293Z,70.63
2022-08-17T23:29:35.478Z,67.78
2022-08-17T23:32:04.680Z,72.20
2022-08-17T23:34:31.749Z,65.70
2022-08-17T23:37:02.240Z,65.68
2022-08-17T23:39:29.355Z,65.82
2022-08-17T23:42:00.198Z,66.15
2022-08-17T23:44:28.874Z,65.60
2022-08-17T23:46:56.325Z,63.08
2022-08-17T23:49:25.035Z,61.20
2022-08-17T23:51:55.096Z,62.95
2022-08-17T23:54:29.760Z,60.35
2022-08-17T23:56:56.655Z,59.28
2022-08-17T23:59:23.684Z,61.10
